Aviation Digital Data Service (ADDS)

Output produced by METARs form (0640 UTC 24 March 2019)
found at http://www.aviationweather.gov/metar/data/
 
WABB 240600Z 16003KT 9999 SCT018 30/25 Q1008 NOSIG
TAF WABB 240500Z 2406/2512 06006KT 9000 SCT018 
     TEMPO 2406/2408 -RA BKN018 
     BECMG 2410/2412 00000KT
       
WAAA 240630Z 33011KT 9999 FEW018CB FEW019 31/25 Q1008 NOSIG RMK CB IN APCH
TAF WAAA 240500Z 2406/2512 33010KT 9000 SCT019 
     PROB40 
     TEMPO 2408/2410 6000 -RA FEW017CB 
     BECMG 2411/2413 11005KT 8000 
     BECMG 2421/2423 9999
       
WAPP 240530Z 32010KT 290V360 9999 FEW021 33/24 Q1007 NOSIG
TAF WAPP 240500Z 2406/2506 33008KT 9999 FEW020
       
WIMM 240600Z 33011KT 9999 SCT018 33/23 Q1009 NOSIG
TAF WIMM 240500Z 2406/2506 35010KT 9999 SCT018 
     BECMG 2412/2414 VRB04KT 4500 HZ
       
WAMM 240630Z 04007KT 360V090 9999 FEW022 32/23 Q1009 NOSIG
TAF WAMM 240500Z 2406/2512 33008KT 9999 SCT022 
     BECMG 2410/2412 VRB02KT FEW022
       
WIII 240630Z 29012KT 260V330 SCT020 34/23 Q1007 NOSIG
TAF WIII 240500Z 2406/2512 32012KT 9000 SCT020 
     TEMPO 2407/2410 -TSRA FEW017CB BKN018
       
TAF WITT 240500Z 2406/2506 33007KT 9000 SCT019 
     BECMG 2423/2501 00000KT 7000
       
WIPP 240630Z 30012KT 9999 BKN010 33/25 Q1007 NOSIG
TAF WIPP 240500Z 2406/2506 30009KT 9999 SCT012 
     TEMPO 2408/2412 3000 TSRA FEW010CB BKN010 
     TEMPO 2421/2501 5000 BR
       
WIBB 240630Z 33005KT 8000 SCT015 34/24 Q1007
WIOO 240630Z 27003KT 9999 SCT013 34/21 Q1007 NOSIG